Pullman Moscow Regional Airport
KPUW : now visible

Airfield :











YOU CAN JOIN US ON...

 
LOGIN :

Register | Disclaimer

   EN    FR    IT 

 









Legend :    VFR   Marginal VFR   IFR   Intensive IFR   Very Intensive IFR
Visi :
Ceiling :
>= 8 km
>= 3000ft
5 to 8 km
1000 to 3000 ft
1500m to 5 km
500 to 1000 ft
800 to 1500m
200 to 500 ft
< 800m
< 200 ft
Symbols :   Thunderstorms  Fog  Heavy snow  Heavy precipitations  Wind > 20 kt







- Airport Elevation : 2556 ft
- IATA code : PUW


KPUW - Pullman Moscow Regional

CURRENT METAR :
  • 220153Z AUTO 28003KT 10SM CLR 17/06 A3003 RMK AO2 SLP170 T01720056

EXPIRED METARs :
  • 220053Z AUTO 29006KT 10SM CLR 19/06 A3004 RMK AO2 SLP169 T01940056
  • 212353Z AUTO 26007KT 10SM CLR 20/06 A3005 RMK AO2 SLP170 T02000056 10206 20161 56017

TAF KPUW
Valid from the 22 at 00:00 until the 23 at 00:00 UTC


212339Z 2200/2224 26006KT P6SM FEW050
FM220200 VRB03KT P6SM SKC
FM221100 11008KT P6SM SKC
FM221800 23009KT P6SM SCT100 BKN200
FM222200 27010G18KT P6SM BKN080 OVC120
No reported NOTAMs for that airfield.



MET'MAP, your aeronautical weather chart ! - Copyright ORBIFLY December 2007 - Disclaimer

ORBIFLY MET'MAP TEAM :

Programming & Development : Alexandra Zaïnal
Concept & Development : Baudouin d'Aumeries
Co-Development & Prog : Marc-Olivier Méhu
Technical & hardware support : Manuel Goepfert

Contact : metmap@orbifly.com




SOURCES & CREDITS :

   NOAA       Earth
Advisory